Time;durP1;ratioP1;P1;durP2;ratioP2;P2;SDS_P1;SDS_P2;PMS_P1;PMS_P2;Temp;Humidity;BMP_temperature;BMP_pressure;BME280_temperature;BME280_humidity;BME280_pressure;Samples;Min_cycle;Max_cycle;Signal;HPM_P1;HPM_P2
2023/03/06 00:02:01;;;;;;;17.77;13.32;;;4.20;99.90;;;;;;6159028;29;20059;-80
2023/03/06 00:05:02;;;;;;;19.65;12.00;;;4.20;99.90;;;;;;6156620;28;20467;-82
2023/03/06 00:08:04;;;;;;;19.25;14.10;;;4.10;99.90;;;;;;6159217;28;20051;-80
2023/03/06 00:11:07;;;;;;;18.48;11.88;;;4.10;99.90;;;;;;6161050;29;20043;-81
2023/03/06 00:14:13;;;;;;;20.58;14.05;;;4.20;99.90;;;;;;6159522;29;20421;-81
2023/03/06 00:17:15;;;;;;;19.00;13.23;;;4.20;99.90;;;;;;6158189;28;20082;-80
2023/03/06 00:20:18;;;;;;;22.88;14.00;;;4.10;99.90;;;;;;6156897;28;20054;-80
2023/03/06 00:23:20;;;;;;;20.08;12.63;;;4.10;99.90;;;;;;6157563;29;20047;-80
2023/03/06 00:26:23;;;;;;;23.17;13.52;;;4.10;99.90;;;;;;6157794;29;20059;-80
2023/03/06 00:29:25;;;;;;;18.95;13.48;;;4.20;99.90;;;;;;6156959;28;20510;-80
2023/03/06 00:32:28;;;;;;;18.65;12.07;;;4.20;99.90;;;;;;6166858;28;20039;-80
2023/03/06 00:35:29;;;;;;;19.77;11.90;;;4.10;99.90;;;;;;6183635;28;20058;-80
2023/03/06 00:38:34;;;;;;;20.95;14.55;;;4.20;99.90;;;;;;6183750;28;20054;-80
2023/03/06 00:41:37;;;;;;;17.33;11.77;;;4.10;99.90;;;;;;6183894;28;20047;-80
2023/03/06 00:44:43;;;;;;;16.42;12.45;;;4.10;99.90;;;;;;6166260;28;20074;-81
2023/03/06 00:47:52;;;;;;;22.25;14.15;;;4.10;99.90;;;;;;6168475;28;20055;-80
2023/03/06 00:50:54;;;;;;;21.38;11.20;;;4.10;99.90;;;;;;6169583;29;20045;-82
2023/03/06 00:53:56;;;;;;;19.05;11.93;;;4.10;99.90;;;;;;6182741;28;20058;-81
2023/03/06 00:56:59;;;;;;;18.17;12.68;;;4.20;99.90;;;;;;6183264;28;20590;-81
2023/03/06 01:00:01;;;;;;;20.25;13.65;;;4.20;99.90;;;;;;6184385;28;20051;-81
2023/03/06 01:03:05;;;;;;;20.65;12.88;;;4.10;99.90;;;;;;6183283;28;20137;-81
2023/03/06 01:06:07;;;;;;;24.23;12.65;;;4.10;99.90;;;;;;6183102;28;20046;-81
2023/03/06 01:09:09;;;;;;;18.48;12.60;;;4.10;99.90;;;;;;6182909;28;20532;-81
2023/03/06 01:12:12;;;;;;;17.30;11.90;;;4.10;99.90;;;;;;6183225;28;20564;-81
2023/03/06 01:15:18;;;;;;;18.00;11.95;;;4.10;99.90;;;;;;6184086;28;20057;-81
2023/03/06 01:18:22;;;;;;;19.60;13.10;;;4.00;99.90;;;;;;6181576;28;20056;-80
2023/03/06 01:21:25;;;;;;;18.73;13.35;;;4.00;99.90;;;;;;6179546;28;20109;-80
2023/03/06 01:24:28;;;;;;;23.27;13.02;;;4.00;99.90;;;;;;6180376;28;20065;-79
2023/03/06 01:27:32;;;;;;;22.42;12.15;;;4.00;99.90;;;;;;6181364;28;20077;-79
2023/03/06 01:30:38;;;;;;;18.05;12.73;;;4.00;99.90;;;;;;6184420;28;20055;-79
2023/03/06 01:33:40;;;;;;;18.45;11.10;;;4.10;99.90;;;;;;6185972;28;20051;-80
2023/03/06 01:36:42;;;;;;;16.60;11.95;;;4.00;99.90;;;;;;6186374;28;20469;-80
2023/03/06 01:39:44;;;;;;;17.92;11.75;;;4.00;99.90;;;;;;6185400;28;20046;-80
2023/03/06 01:42:49;;;;;;;20.85;11.38;;;4.00;99.90;;;;;;6188023;28;20142;-80
2023/03/06 01:46:23;;;;;;;23.05;12.63;;;4.00;99.90;;;;;;6183698;28;20051;-81
2023/03/06 01:49:28;;;;;;;23.35;10.93;;;4.00;99.90;;;;;;6187032;28;20053;-80
2023/03/06 01:52:35;;;;;;;17.85;11.88;;;4.00;99.90;;;;;;6180220;28;20057;-80
2023/03/06 01:55:37;;;;;;;18.42;13.57;;;3.90;99.90;;;;;;6176651;28;20053;-80
2023/03/06 01:58:48;;;;;;;28.42;13.75;;;3.90;99.90;;;;;;6186333;28;20153;-81
2023/03/06 02:01:50;;;;;;;18.77;13.25;;;3.90;99.90;;;;;;6179327;28;20054;-81
2023/03/06 02:04:52;;;;;;;20.98;13.75;;;3.90;99.90;;;;;;6185345;28;20043;-80
2023/03/06 02:07:54;;;;;;;22.60;14.57;;;3.90;99.90;;;;;;6181304;28;20417;-80
2023/03/06 02:11:12;;;;;;;21.73;13.82;;;3.90;99.90;;;;;;6175930;28;20050;-79
2023/03/06 02:14:18;;;;;;;23.65;11.73;;;3.90;99.90;;;;;;6162647;28;20477;-82
2023/03/06 02:20:59;;;;;;;22.25;13.38;;;3.90;99.90;;;;;;6163643;28;20075;-81
2023/03/06 02:24:27;;;;;;;22.88;13.52;;;4.00;99.90;;;;;;6133249;28;20077;-81
2023/03/06 02:27:49;;;;;;;21.63;13.75;;;3.90;99.90;;;;;;6151539;28;20055;-80
2023/03/06 02:34:53;;;;;;;20.73;12.07;;;3.90;99.90;;;;;;6149582;28;20051;-79
2023/03/06 02:38:07;;;;;;;18.40;12.90;;;3.90;99.90;;;;;;6153553;28;20399;-79
2023/03/06 02:41:10;;;;;;;21.52;12.68;;;3.90;99.90;;;;;;6151150;28;20050;-80
2023/03/06 02:44:13;;;;;;;21.08;14.35;;;4.00;99.90;;;;;;6148579;28;20051;-79
2023/03/06 02:47:15;;;;;;;21.33;14.02;;;4.00;99.90;;;;;;6148575;28;20070;-79
2023/03/06 02:50:17;;;;;;;18.92;11.85;;;4.00;99.90;;;;;;6149740;28;20047;-79
2023/03/06 02:53:21;;;;;;;24.52;14.05;;;4.00;99.90;;;;;;6143712;28;20078;-79
2023/03/06 02:56:23;;;;;;;28.38;15.18;;;4.00;99.90;;;;;;6145907;28;20054;-79
2023/03/06 02:59:26;;;;;;;25.05;14.07;;;4.00;99.90;;;;;;6146412;28;20051;-79
2023/03/06 03:02:28;;;;;;;19.90;13.70;;;4.00;99.90;;;;;;6148274;28;20055;-79
2023/03/06 03:05:33;;;;;;;23.27;14.15;;;4.10;99.90;;;;;;6146536;28;20059;-80
2023/03/06 03:08:36;;;;;;;23.98;15.60;;;4.00;99.90;;;;;;6148242;28;20043;-79
2023/03/06 03:11:39;;;;;;;25.52;15.07;;;4.00;99.90;;;;;;6150081;28;20050;-80
2023/03/06 03:14:42;;;;;;;26.75;15.40;;;4.00;99.90;;;;;;6146299;28;20075;-79
2023/03/06 03:17:44;;;;;;;24.85;15.98;;;4.00;99.90;;;;;;6149029;28;20054;-81
2023/03/06 03:20:45;;;;;;;24.73;15.52;;;4.00;99.90;;;;;;6148960;28;20414;-79
2023/03/06 03:23:47;;;;;;;26.27;13.90;;;4.00;99.90;;;;;;6145862;28;20059;-79
2023/03/06 03:26:49;;;;;;;26.05;15.15;;;4.00;99.90;;;;;;6135350;29;20062;-78
2023/03/06 03:29:52;;;;;;;23.48;15.20;;;4.00;99.90;;;;;;6160848;28;20046;-80
2023/03/06 03:32:54;;;;;;;24.55;14.68;;;4.00;99.90;;;;;;6173883;28;20101;-78
2023/03/06 03:35:57;;;;;;;21.13;14.48;;;4.00;99.90;;;;;;6175453;28;20049;-80
2023/03/06 03:38:59;;;;;;;25.15;13.52;;;4.00;99.90;;;;;;6175111;28;20118;-79
2023/03/06 03:42:00;;;;;;;26.35;14.35;;;4.00;99.90;;;;;;6174964;28;20054;-80
2023/03/06 03:45:04;;;;;;;20.13;13.27;;;4.00;99.90;;;;;;6155420;28;20058;-79
2023/03/06 03:48:06;;;;;;;23.65;15.02;;;4.00;99.90;;;;;;6158559;28;20050;-80
2023/03/06 03:51:09;;;;;;;22.85;15.55;;;4.00;99.90;;;;;;6167059;28;20042;-78
2023/03/06 03:54:11;;;;;;;20.55;13.88;;;3.90;99.90;;;;;;6168689;28;20050;-79
2023/03/06 03:57:12;;;;;;;22.98;14.32;;;4.00;99.90;;;;;;6167185;28;20062;-79
2023/03/06 04:00:17;;;;;;;19.35;12.82;;;3.90;99.90;;;;;;6166157;28;20047;-79
2023/03/06 04:03:19;;;;;;;18.48;13.00;;;3.90;99.90;;;;;;6167057;28;20058;-80
2023/03/06 04:06:20;;;;;;;26.50;17.58;;;3.90;99.90;;;;;;6167560;28;20070;-79
2023/03/06 04:09:24;;;;;;;23.80;14.02;;;3.80;99.90;;;;;;6166052;28;20065;-80
2023/03/06 04:12:30;;;;;;;23.50;15.88;;;3.80;99.90;;;;;;6129763;28;20047;-80
2023/03/06 04:15:33;;;;;;;30.30;16.83;;;3.80;99.90;;;;;;6159081;28;20501;-79
2023/03/06 04:18:37;;;;;;;25.27;15.63;;;3.80;99.90;;;;;;6146907;28;20055;-79
2023/03/06 04:21:42;;;;;;;23.90;14.02;;;3.80;99.90;;;;;;6146871;28;20047;-79
2023/03/06 04:24:47;;;;;;;20.15;14.68;;;3.80;99.90;;;;;;6146686;28;20047;-80
2023/03/06 04:27:52;;;;;;;24.52;17.60;;;3.80;99.90;;;;;;6154093;28;20450;-79
2023/03/06 04:30:56;;;;;;;28.52;14.82;;;3.70;99.90;;;;;;6169932;28;20062;-80
2023/03/06 04:34:00;;;;;;;25.25;16.08;;;3.80;99.90;;;;;;6172226;28;20065;-79
2023/03/06 04:37:02;;;;;;;28.25;16.88;;;3.80;99.90;;;;;;6167041;28;20070;-79
2023/03/06 04:40:05;;;;;;;25.25;15.60;;;3.80;99.90;;;;;;6171300;28;20144;-79
2023/03/06 04:43:06;;;;;;;26.20;14.15;;;3.80;99.90;;;;;;6171881;28;20055;-79
2023/03/06 04:46:11;;;;;;;25.80;14.85;;;3.80;99.90;;;;;;6168421;28;20050;-80
2023/03/06 04:49:13;;;;;;;25.88;14.60;;;3.80;99.90;;;;;;6171921;28;20053;-80
2023/03/06 04:52:14;;;;;;;24.20;14.35;;;3.80;99.90;;;;;;6168383;28;20058;-80
2023/03/06 04:55:17;;;;;;;28.75;16.83;;;3.80;99.90;;;;;;6170361;28;20059;-80
2023/03/06 04:58:19;;;;;;;26.58;14.65;;;3.80;99.90;;;;;;6171193;28;20054;-81
2023/03/06 05:01:22;;;;;;;26.02;14.73;;;3.80;99.90;;;;;;6154734;28;20045;-80
2023/03/06 05:04:24;;;;;;;26.67;16.15;;;3.80;99.90;;;;;;6149148;28;20059;-79
2023/03/06 05:07:26;;;;;;;25.67;16.15;;;3.80;99.90;;;;;;6155538;28;20058;-79
2023/03/06 05:10:28;;;;;;;23.48;14.70;;;3.80;99.90;;;;;;6176422;28;20061;-79
2023/03/06 05:16:47;;;;;;;26.08;15.20;;;3.90;99.90;;;;;;6139482;28;20088;-80
2023/03/06 05:19:49;;;;;;;27.05;15.10;;;3.90;99.90;;;;;;6133359;28;20051;-80
2023/03/06 05:22:51;;;;;;;24.55;15.02;;;3.90;99.90;;;;;;6135745;28;20689;-79
2023/03/06 05:25:53;;;;;;;23.52;14.85;;;3.80;99.90;;;;;;6149668;28;20059;-80
2023/03/06 05:28:58;;;;;;;22.70;14.98;;;3.90;99.90;;;;;;6152404;28;20054;-81
2023/03/06 05:32:01;;;;;;;26.88;14.63;;;3.80;99.90;;;;;;6159020;28;20049;-82
2023/03/06 05:35:03;;;;;;;21.95;13.93;;;3.80;99.90;;;;;;6154302;28;20059;-82
2023/03/06 05:38:09;;;;;;;24.25;15.90;;;3.80;99.90;;;;;;6159891;28;20498;-81
2023/03/06 05:41:12;;;;;;;22.73;13.70;;;3.80;99.90;;;;;;6153997;28;20035;-82
2023/03/06 05:47:40;;;;;;;31.00;15.13;;;3.90;99.90;;;;;;6148420;28;20134;-81
2023/03/06 06:36:33;;;;;;;28.50;16.67;;;4.00;99.90;;;;;;6199863;23;20449;-82
2023/03/06 06:39:35;;;;;;;28.88;15.73;;;4.00;99.90;;;;;;6169484;28;20055;-81
2023/03/06 06:42:43;;;;;;;39.45;19.73;;;3.90;99.90;;;;;;6170544;28;20680;-81
2023/03/06 06:45:45;;;;;;;29.35;18.08;;;4.00;99.90;;;;;;6169993;28;20043;-82
2023/03/06 06:48:49;;;;;;;34.15;19.08;;;4.00;99.90;;;;;;6171856;28;20042;-82
2023/03/06 06:51:52;;;;;;;26.00;16.13;;;4.00;99.90;;;;;;6172659;28;20051;-81
2023/03/06 06:54:57;;;;;;;29.10;16.70;;;4.00;99.90;;;;;;6177049;28;20078;-81
2023/03/06 06:57:59;;;;;;;32.58;17.90;;;4.00;99.90;;;;;;6168941;28;20058;-82
2023/03/06 07:01:08;;;;;;;35.70;20.35;;;4.00;99.90;;;;;;6168589;28;20050;-81
2023/03/06 07:04:11;;;;;;;34.22;19.67;;;4.00;99.90;;;;;;6168014;28;20047;-81
2023/03/06 07:07:14;;;;;;;33.38;20.42;;;4.10;99.90;;;;;;6168901;28;20055;-82
2023/03/06 07:10:19;;;;;;;29.88;17.70;;;4.10;99.90;;;;;;6167090;28;20055;-82
2023/03/06 07:13:21;;;;;;;36.97;18.80;;;4.10;99.90;;;;;;6167010;28;20039;-81
2023/03/06 07:16:22;;;;;;;33.35;18.88;;;4.10;99.90;;;;;;6171350;28;20050;-82
2023/03/06 07:19:24;;;;;;;40.88;19.45;;;4.00;99.90;;;;;;6168377;28;20050;-83
2023/03/06 07:22:27;;;;;;;40.20;18.65;;;4.10;99.90;;;;;;6173143;28;20498;-81
2023/03/06 07:25:29;;;;;;;27.92;17.77;;;4.10;99.90;;;;;;6179362;28;20050;-81
2023/03/06 07:28:32;;;;;;;30.77;19.35;;;4.10;99.90;;;;;;6176568;28;20126;-82
2023/03/06 07:31:42;;;;;;;29.30;17.02;;;4.10;99.90;;;;;;6169443;28;20042;-81
2023/03/06 07:34:46;;;;;;;27.20;19.33;;;4.20;99.90;;;;;;6169736;28;20050;-82
2023/03/06 07:37:50;;;;;;;30.63;17.77;;;4.30;99.90;;;;;;6169834;28;20416;-82
2023/03/06 07:40:52;;;;;;;33.80;19.33;;;4.20;99.90;;;;;;6169200;28;20070;-82
2023/03/06 07:43:54;;;;;;;32.28;19.65;;;4.40;99.90;;;;;;6168100;28;20054;-81
2023/03/06 07:46:55;;;;;;;27.40;18.13;;;4.40;99.90;;;;;;6169535;28;20055;-80
2023/03/06 08:39:15;;;;;;;31.58;18.15;;;4.60;99.90;;;;;;5987935;23;20058;-80
2023/03/06 08:42:17;;;;;;;24.23;16.67;;;4.60;99.90;;;;;;6166447;28;20580;-81
2023/03/06 08:45:28;;;;;;;26.90;16.48;;;4.60;99.90;;;;;;6188051;28;20405;-83
2023/03/06 08:48:32;;;;;;;33.08;19.00;;;4.70;99.90;;;;;;6184971;28;20043;-79
2023/03/06 08:51:38;;;;;;;27.52;18.92;;;4.70;99.90;;;;;;6176762;28;20429;-80
2023/03/06 08:54:41;;;;;;;33.60;19.00;;;4.70;99.90;;;;;;6190538;28;20058;-81
2023/03/06 08:57:43;;;;;;;29.98;18.17;;;4.70;99.90;;;;;;6185380;28;20053;-83
2023/03/06 09:00:45;;;;;;;27.98;18.60;;;4.80;99.90;;;;;;6183770;28;20050;-80
2023/03/06 09:04:02;;;;;;;38.75;20.35;;;4.90;99.90;;;;;;6179552;28;20169;-80
2023/03/06 09:07:04;;;;;;;29.98;18.58;;;5.00;99.90;;;;;;6194685;28;20061;-80
2023/03/06 09:10:13;;;;;;;28.33;18.60;;;5.00;99.90;;;;;;6184757;28;20050;-81
2023/03/06 09:13:15;;;;;;;28.65;16.45;;;5.10;99.90;;;;;;6183825;28;20045;-80
2023/03/06 09:16:17;;;;;;;28.77;17.73;;;5.10;99.90;;;;;;6188488;28;20038;-81
2023/03/06 09:19:19;;;;;;;31.30;17.00;;;5.10;99.90;;;;;;6187835;28;20054;-82
2023/03/06 09:22:20;;;;;;;23.73;16.08;;;5.10;99.90;;;;;;6186007;28;20050;-79
2023/03/06 09:25:23;;;;;;;26.25;17.17;;;5.20;99.90;;;;;;6185405;28;20049;-80
2023/03/06 09:28:25;;;;;;;23.67;15.90;;;5.20;99.90;;;;;;6187003;28;20046;-81
2023/03/06 09:31:27;;;;;;;25.90;14.40;;;5.30;99.90;;;;;;6184305;28;20502;-81
2023/03/06 09:34:29;;;;;;;27.67;16.27;;;5.30;99.90;;;;;;6187598;28;20501;-79
2023/03/06 09:37:30;;;;;;;31.42;17.20;;;5.30;99.90;;;;;;6159041;28;20179;-80
2023/03/06 09:41:00;;;;;;;30.48;17.92;;;5.30;99.90;;;;;;6173662;28;20046;-82
2023/03/06 09:44:04;;;;;;;21.75;14.32;;;5.30;99.90;;;;;;6189730;28;20057;-80
2023/03/06 09:47:31;;;;;;;30.02;17.00;;;5.40;99.90;;;;;;6188076;28;20417;-80
2023/03/06 09:54:12;;;;;;;26.25;16.58;;;5.50;99.90;;;;;;6187729;28;20495;-79
2023/03/06 09:57:27;;;;;;;22.05;13.57;;;5.60;99.90;;;;;;6173394;28;20042;-79
2023/03/06 10:05:47;;;;;;;24.63;15.77;;;5.70;99.90;;;;;;6157720;28;20046;-81
2023/03/06 10:09:01;;;;;;;27.58;14.30;;;5.80;99.90;;;;;;6125658;28;20100;-81
2023/03/06 10:16:29;;;;;;;21.77;14.63;;;5.90;99.90;;;;;;6184313;28;20106;-80
2023/03/06 10:19:47;;;;;;;20.50;14.05;;;5.90;99.90;;;;;;6178214;28;20114;-80
2023/03/06 10:27:34;;;;;;;18.85;13.05;;;6.20;99.90;;;;;;6070930;29;20128;-81
2023/03/06 10:38:49;;;;;;;19.02;13.23;;;6.80;99.90;;;;;;6064761;29;20094;-80
2023/03/06 10:43:04;;;;;;;23.65;14.43;;;6.80;99.90;;;;;;6161176;28;20046;-80
2023/03/06 11:01:33;;;;;;;22.58;13.57;;;7.10;99.90;;;;;;6154079;28;20046;-80
2023/03/06 11:05:30;;;;;;;19.42;13.07;;;7.10;99.90;;;;;;6183405;28;20169;-80
2023/03/06 11:08:49;;;;;;;18.60;13.50;;;7.10;99.90;;;;;;6169479;28;20046;-80
2023/03/06 11:16:07;;;;;;;19.65;11.63;;;7.40;99.90;;;;;;6171770;28;20050;-80
2023/03/06 11:23:33;;;;;;;18.42;12.27;;;7.50;99.90;;;;;;6188582;28;22509;-80
2023/03/06 11:27:09;;;;;;;16.48;12.00;;;7.70;99.40;;;;;;6177993;28;20687;-80
2023/03/06 11:30:41;;;;;;;15.30;10.63;;;7.70;98.90;;;;;;6181370;28;20050;-79
2023/03/06 11:34:03;;;;;;;19.13;12.48;;;7.70;99.00;;;;;;6158553;28;20102;-80
2023/03/06 11:37:34;;;;;;;16.98;12.00;;;7.80;98.70;;;;;;6181905;28;20134;-79
2023/03/06 11:41:05;;;;;;;16.65;11.82;;;7.90;98.60;;;;;;6184146;28;20133;-81
2023/03/06 11:44:41;;;;;;;17.30;11.40;;;8.00;98.30;;;;;;6180289;28;20102;-80
2023/03/06 11:48:02;;;;;;;15.63;11.27;;;8.20;97.90;;;;;;6182328;28;20054;-80
2023/03/06 11:51:16;;;;;;;21.63;11.13;;;8.20;97.40;;;;;;6172264;28;20046;-79
2023/03/06 11:54:20;;;;;;;15.25;10.98;;;8.30;97.20;;;;;;6182600;28;20050;-81
2023/03/06 11:57:49;;;;;;;15.27;9.70;;;8.20;96.80;;;;;;6171490;28;20086;-80
2023/03/06 12:01:19;;;;;;;16.35;13.07;;;8.30;96.70;;;;;;6176933;28;20051;-80
2023/03/06 12:05:00;;;;;;;16.98;11.85;;;8.30;96.20;;;;;;6154818;28;20074;-80
2023/03/06 12:08:26;;;;;;;16.48;11.27;;;8.30;96.00;;;;;;6145340;28;20051;-81
2023/03/06 12:11:41;;;;;;;18.17;11.73;;;8.10;95.50;;;;;;6159631;28;20050;-82
2023/03/06 12:15:13;;;;;;;16.65;11.75;;;8.00;95.20;;;;;;6183310;28;20044;-80
2023/03/06 12:18:34;;;;;;;16.85;12.35;;;7.90;95.20;;;;;;6170214;28;20109;-81
2023/03/06 12:21:47;;;;;;;18.40;12.13;;;7.80;95.60;;;;;;6178343;28;20048;-81
2023/03/06 12:25:16;;;;;;;18.02;11.38;;;7.90;95.50;;;;;;6185796;28;20046;-81
2023/03/06 12:28:50;;;;;;;30.95;20.02;;;8.10;95.30;;;;;;6183361;28;20049;-80
2023/03/06 12:32:07;;;;;;;14.43;10.98;;;8.10;94.90;;;;;;6180965;28;20093;-81
2023/03/06 12:35:31;;;;;;;28.25;19.55;;;7.90;94.40;;;;;;6177820;28;20078;-81
2023/03/06 12:38:56;;;;;;;15.60;10.57;;;7.70;94.20;;;;;;6193725;28;20509;-81
2023/03/06 12:42:17;;;;;;;15.70;9.75;;;7.70;94.50;;;;;;6176295;28;20055;-81
2023/03/06 12:45:30;;;;;;;32.55;18.05;;;7.80;94.50;;;;;;6181767;28;20068;-81
2023/03/06 12:48:36;;;;;;;17.00;10.25;;;7.80;94.30;;;;;;6181574;28;20142;-81
2023/03/06 12:51:39;;;;;;;21.33;15.02;;;7.70;94.40;;;;;;6182538;28;20047;-81
2023/03/06 12:54:42;;;;;;;18.10;11.90;;;7.70;94.50;;;;;;6182146;28;20042;-79
2023/03/06 12:57:47;;;;;;;14.27;9.77;;;7.70;94.40;;;;;;6179303;28;20050;-78
2023/03/06 13:00:59;;;;;;;15.63;12.23;;;7.70;94.50;;;;;;6181813;28;20040;-82
2023/03/06 13:04:18;;;;;;;14.77;10.02;;;7.70;94.60;;;;;;6177852;28;20051;-80
2023/03/06 13:07:33;;;;;;;17.17;8.50;;;7.70;94.40;;;;;;6180140;28;20050;-79
2023/03/06 13:10:36;;;;;;;13.43;9.18;;;7.60;94.50;;;;;;6188595;28;20046;-82
2023/03/06 13:13:44;;;;;;;13.05;9.13;;;7.50;94.40;;;;;;6180963;28;20070;-79
2023/03/06 13:16:45;;;;;;;15.38;9.18;;;7.40;94.50;;;;;;6173082;28;20054;-80
2023/03/06 13:19:48;;;;;;;15.52;11.23;;;7.40;94.70;;;;;;6174090;28;20498;-80
2023/03/06 13:22:51;;;;;;;12.40;8.63;;;7.40;94.70;;;;;;6178727;28;20058;-81
2023/03/06 13:25:53;;;;;;;13.70;9.05;;;7.30;94.80;;;;;;6185507;28;20078;-79
2023/03/06 13:28:56;;;;;;;13.40;9.93;;;7.20;94.70;;;;;;6190096;28;20506;-80
2023/03/06 13:32:07;;;;;;;21.58;15.00;;;7.10;94.80;;;;;;6188344;28;20393;-79
2023/03/06 13:35:45;;;;;;;14.02;12.55;;;7.00;94.90;;;;;;6187766;28;20575;-80
2023/03/06 13:39:05;;;;;;;12.97;8.77;;;7.00;95.10;;;;;;6179924;28;20051;-81
2023/03/06 13:42:07;;;;;;;14.43;10.50;;;6.90;95.00;;;;;;6187821;28;20296;-79
2023/03/06 13:45:15;;;;;;;13.85;9.65;;;6.90;95.20;;;;;;6186147;28;20059;-81
2023/03/06 13:48:31;;;;;;;29.95;19.95;;;6.90;95.30;;;;;;6187972;28;20050;-80
2023/03/06 13:51:35;;;;;;;15.80;10.60;;;6.90;95.50;;;;;;6187106;28;20085;-79
2023/03/06 13:54:52;;;;;;;45.80;24.95;;;6.90;95.90;;;;;;6187927;28;20046;-80
2023/03/06 13:58:07;;;;;;;38.35;25.42;;;6.90;95.90;;;;;;6186306;28;20039;-79
2023/03/06 14:01:22;;;;;;;36.47;26.52;;;6.90;95.90;;;;;;6184008;28;20057;-80
2023/03/06 14:04:35;;;;;;;16.75;11.68;;;6.90;96.00;;;;;;6183171;28;20361;-81
2023/03/06 14:07:40;;;;;;;18.88;12.52;;;6.90;96.40;;;;;;6184941;28;20042;-79
2023/03/06 14:10:45;;;;;;;21.67;14.48;;;6.80;96.60;;;;;;6179472;28;20160;-79
2023/03/06 14:13:53;;;;;;;15.20;11.63;;;6.80;96.90;;;;;;6185357;28;20053;-80
2023/03/06 14:16:55;;;;;;;13.65;9.88;;;6.80;97.20;;;;;;6183109;28;20065;-80
2023/03/06 14:20:01;;;;;;;14.68;9.68;;;6.70;97.30;;;;;;6179925;28;22884;-79
2023/03/06 14:23:21;;;;;;;12.90;9.68;;;6.60;97.60;;;;;;6182261;28;20042;-82
2023/03/06 14:26:28;;;;;;;15.20;8.63;;;6.60;97.70;;;;;;6182103;28;20065;-79
2023/03/06 14:29:32;;;;;;;13.43;9.85;;;6.60;97.70;;;;;;6182749;28;20057;-81
2023/03/06 14:32:34;;;;;;;27.20;24.40;;;6.60;97.70;;;;;;6184411;28;20050;-80
2023/03/06 14:35:36;;;;;;;16.20;12.55;;;6.60;97.90;;;;;;6186251;28;20513;-81
2023/03/06 14:38:49;;;;;;;12.18;9.35;;;6.60;97.90;;;;;;6186721;28;20053;-81
2023/03/06 14:42:04;;;;;;;15.65;10.57;;;6.50;97.80;;;;;;6182466;28;20055;-80
2023/03/06 14:45:16;;;;;;;10.82;8.70;;;6.40;98.00;;;;;;6178715;28;20047;-80
2023/03/06 14:48:18;;;;;;;11.95;7.93;;;6.30;98.30;;;;;;6182047;28;20617;-81
2023/03/06 14:51:21;;;;;;;16.83;9.23;;;6.30;98.70;;;;;;6182331;28;20051;-81
2023/03/06 14:54:28;;;;;;;9.60;7.40;;;6.20;98.80;;;;;;6182098;28;20478;-80
2023/03/06 14:57:31;;;;;;;16.73;10.68;;;6.30;99.20;;;;;;6180379;28;20062;-80
2023/03/06 15:00:37;;;;;;;15.63;8.75;;;6.30;99.30;;;;;;6183066;28;20053;-80
2023/03/06 15:03:44;;;;;;;22.35;15.40;;;6.30;99.40;;;;;;6183758;28;20051;-81
2023/03/06 15:06:47;;;;;;;21.40;12.77;;;6.40;99.70;;;;;;6186547;28;20184;-80
2023/03/06 15:09:50;;;;;;;16.30;10.32;;;6.50;99.70;;;;;;6184571;28;20418;-80
2023/03/06 15:13:22;;;;;;;11.88;9.73;;;6.60;99.60;;;;;;6181528;28;20042;-81
2023/03/06 15:16:27;;;;;;;16.67;8.95;;;6.60;99.70;;;;;;6183672;28;20153;-80
2023/03/06 15:19:41;;;;;;;17.02;10.10;;;6.60;99.60;;;;;;6186337;28;20109;-81
2023/03/06 15:22:43;;;;;;;16.10;9.27;;;6.60;99.80;;;;;;6196913;28;20047;-82
2023/03/06 15:25:57;;;;;;;11.82;9.65;;;6.60;99.70;;;;;;6186842;28;20046;-81
2023/03/06 15:29:20;;;;;;;50.13;24.75;;;6.60;99.70;;;;;;6191327;28;20061;-81
2023/03/06 15:32:31;;;;;;;20.30;13.50;;;6.50;99.90;;;;;;6186354;28;20053;-81
2023/03/06 15:35:33;;;;;;;26.25;11.00;;;6.60;99.90;;;;;;6187806;28;20064;-82
2023/03/06 15:38:38;;;;;;;25.20;15.73;;;6.60;99.90;;;;;;6188900;28;20054;-84
2023/03/06 15:41:40;;;;;;;73.15;15.68;;;6.60;99.90;;;;;;6190095;28;20050;-82
2023/03/06 15:44:47;;;;;;;18.00;12.48;;;6.60;99.90;;;;;;6185603;28;20058;-82
2023/03/06 15:47:51;;;;;;;44.70;12.80;;;6.60;99.90;;;;;;6185356;28;20061;-82
2023/03/06 15:50:53;;;;;;;17.70;11.88;;;6.70;99.90;;;;;;6189199;28;20166;-82
2023/03/06 15:53:55;;;;;;;20.55;13.30;;;6.70;99.50;;;;;;6187614;28;20046;-82
2023/03/06 15:56:58;;;;;;;19.92;12.80;;;6.70;99.20;;;;;;6184139;28;20054;-82
2023/03/06 16:00:03;;;;;;;15.52;11.52;;;6.70;98.70;;;;;;6187252;28;20133;-79
2023/03/06 16:03:04;;;;;;;18.35;11.18;;;6.70;98.40;;;;;;6188921;28;20122;-83
2023/03/06 16:06:06;;;;;;;18.73;11.43;;;6.60;97.90;;;;;;6182900;28;20469;-82
2023/03/06 16:09:08;;;;;;;22.15;13.25;;;6.60;97.90;;;;;;6192001;28;20048;-83
2023/03/06 16:12:16;;;;;;;17.58;11.98;;;6.60;97.70;;;;;;6186305;28;20057;-82
2023/03/06 16:15:21;;;;;;;17.10;10.98;;;6.60;97.60;;;;;;6186218;28;20055;-81
2023/03/06 16:18:23;;;;;;;17.52;10.98;;;6.50;97.50;;;;;;6191211;28;20143;-83
2023/03/06 16:21:25;;;;;;;21.75;12.52;;;6.50;97.40;;;;;;6183718;28;20058;-83
2023/03/06 16:24:26;;;;;;;17.63;12.63;;;6.40;97.40;;;;;;6179998;28;20529;-84
2023/03/06 16:27:34;;;;;;;18.23;12.32;;;6.40;97.30;;;;;;6163417;28;21032;-81
2023/03/06 16:30:37;;;;;;;20.58;13.77;;;6.40;97.20;;;;;;6190998;28;20064;-82
2023/03/06 16:34:18;;;;;;;;;;;;;;;;;;;;;
2023/03/06 16:37:20;;;;;;;18.15;12.60;;;6.30;97.10;;;;;;6176734;28;20080;-83
2023/03/06 16:40:24;;;;;;;22.88;14.30;;;6.30;97.00;;;;;;6189948;28;20054;-82
2023/03/06 16:43:26;;;;;;;18.25;12.50;;;6.20;97.00;;;;;;6184599;28;20043;-83
2023/03/06 16:46:30;;;;;;;18.63;12.60;;;6.20;97.00;;;;;;6184378;28;20057;-84
2023/03/06 16:49:32;;;;;;;19.52;13.02;;;6.30;97.20;;;;;;6187274;28;20046;-79
2023/03/06 16:52:33;;;;;;;18.30;11.98;;;6.40;97.10;;;;;;6185740;28;20413;-82
2023/03/06 16:55:35;;;;;;;27.15;17.38;;;6.40;97.10;;;;;;6193733;28;20054;-81
2023/03/06 16:58:37;;;;;;;23.02;14.48;;;6.50;97.00;;;;;;6190979;28;20056;-80
2023/03/06 17:01:42;;;;;;;19.05;11.27;;;6.50;96.90;;;;;;6189153;28;20066;-80
2023/03/06 17:04:44;;;;;;;17.80;14.13;;;6.50;96.70;;;;;;6193765;28;20113;-78
2023/03/06 17:07:45;;;;;;;24.73;17.73;;;6.40;96.80;;;;;;6191879;28;20042;-78
2023/03/06 17:10:47;;;;;;;33.67;26.33;;;6.30;96.60;;;;;;6182859;28;20402;-79
2023/03/06 17:13:49;;;;;;;25.75;15.23;;;6.30;96.70;;;;;;6184479;28;20528;-79
2023/03/06 17:16:53;;;;;;;18.02;11.98;;;6.20;96.80;;;;;;6178597;28;20054;-79
2023/03/06 17:19:55;;;;;;;19.83;12.93;;;6.10;96.70;;;;;;6165329;28;20054;-78
2023/03/06 17:22:57;;;;;;;19.95;14.00;;;6.10;96.80;;;;;;6182633;28;20069;-78
2023/03/06 17:26:03;;;;;;;21.27;12.27;;;6.00;96.80;;;;;;6183399;28;20054;-78
2023/03/06 17:29:05;;;;;;;18.08;11.85;;;6.00;96.90;;;;;;6179319;28;20108;-79
2023/03/06 17:32:08;;;;;;;24.25;11.55;;;5.90;97.00;;;;;;6178436;28;20046;-78
2023/03/06 17:35:10;;;;;;;23.92;14.70;;;6.30;97.80;;;;;;6175583;28;20055;-78
2023/03/06 17:38:12;;;;;;;19.13;12.38;;;6.40;97.90;;;;;;6176673;28;20517;-78
2023/03/06 17:41:14;;;;;;;20.10;12.73;;;6.60;98.00;;;;;;6150369;28;1016470;-78
2023/03/06 17:44:16;;;;;;;20.52;13.40;;;6.80;98.00;;;;;;6182866;28;20050;-78
2023/03/06 17:47:19;;;;;;;21.75;14.15;;;6.80;97.70;;;;;;6172441;28;20163;-78
2023/03/06 17:50:33;;;;;;;22.23;13.90;;;6.80;97.60;;;;;;6190769;28;20053;-78
2023/03/06 17:53:35;;;;;;;20.08;14.05;;;6.50;97.30;;;;;;6178604;28;20382;-78
2023/03/06 17:56:37;;;;;;;23.05;15.63;;;6.30;97.50;;;;;;6185885;28;20046;-79
2023/03/06 17:59:39;;;;;;;28.38;17.15;;;6.20;97.70;;;;;;6192564;28;20097;-78
2023/03/06 18:02:44;;;;;;;29.52;17.77;;;6.10;97.70;;;;;;6190703;28;20065;-79
2023/03/06 18:09:43;;;;;;;22.65;14.57;;;5.90;97.70;;;;;;6129321;29;20044;-79
2023/03/06 18:12:44;;;;;;;28.23;19.08;;;5.80;97.70;;;;;;6136245;28;20056;-78
2023/03/06 18:15:46;;;;;;;29.48;16.88;;;5.80;97.70;;;;;;6126930;29;20060;-78
2023/03/06 18:18:51;;;;;;;17.00;13.98;;;5.70;97.70;;;;;;6133860;29;20051;-79
2023/03/06 18:21:53;;;;;;;21.30;13.48;;;5.70;97.70;;;;;;6128495;29;20047;-79
2023/03/06 18:24:54;;;;;;;19.85;14.05;;;5.60;97.70;;;;;;6132168;29;20043;-79
2023/03/06 18:27:56;;;;;;;18.92;12.13;;;5.60;97.80;;;;;;6127977;29;20457;-79
2023/03/06 18:30:58;;;;;;;18.42;13.30;;;5.60;97.80;;;;;;6132332;29;20422;-79
2023/03/06 18:34:03;;;;;;;21.98;14.68;;;5.50;97.70;;;;;;6129607;29;20402;-79
2023/03/06 18:37:04;;;;;;;22.80;14.25;;;5.50;97.70;;;;;;6127050;29;20055;-79
2023/03/06 18:40:08;;;;;;;18.02;12.98;;;5.50;97.70;;;;;;6133494;29;20454;-78
2023/03/06 18:43:09;;;;;;;23.77;14.60;;;5.40;97.70;;;;;;6127804;29;20175;-78
2023/03/06 18:46:11;;;;;;;22.48;15.15;;;5.40;97.70;;;;;;6130425;29;20980;-78